createdAt,value
2018-06-27T00:03:48.658Z,90.00
2018-06-27T00:08:43.171Z,89.90
2018-06-27T00:13:37.773Z,90.20
2018-06-27T00:18:32.387Z,90.40
2018-06-27T00:23:26.898Z,90.50
2018-06-27T00:28:21.482Z,90.80
2018-06-27T00:33:16.076Z,90.80
2018-06-27T00:38:15.793Z,90.90
2018-06-27T00:43:10.358Z,90.90
2018-06-27T00:48:05.065Z,91.30
2018-06-27T00:52:59.624Z,91.10
2018-06-27T00:57:54.165Z,91.10
2018-06-27T01:02:48.691Z,91.10
2018-06-27T01:07:43.227Z,91.00
2018-06-27T01:12:37.761Z,91.30
2018-06-27T01:17:32.330Z,91.40
2018-06-27T01:22:26.888Z,91.80
2018-06-27T01:27:21.449Z,91.80
2018-06-27T01:32:15.992Z,91.90
2018-06-27T01:37:10.610Z,92.10
2018-06-27T01:42:05.137Z,91.90
2018-06-27T01:46:59.728Z,91.90
2018-06-27T01:51:54.281Z,92.10
2018-06-27T01:56:48.852Z,92.40
2018-06-27T02:01:43.431Z,93.10
2018-06-27T02:06:37.960Z,93.60
2018-06-27T02:11:32.526Z,93.20
2018-06-27T02:16:27.067Z,93.20
2018-06-27T02:21:23.015Z,93.00
2018-06-27T02:26:17.584Z,92.70
2018-06-27T02:36:06.538Z,92.50
2018-06-27T02:41:01.102Z,92.60
2018-06-27T02:50:49.854Z,92.70
2018-06-27T02:55:44.538Z,93.00
2018-06-27T03:00:39.102Z,93.10
2018-06-27T03:05:33.684Z,93.20
2018-06-27T03:10:28.252Z,93.20
2018-06-27T03:15:22.859Z,93.40
2018-06-27T03:20:17.438Z,93.60
2018-06-27T03:25:11.968Z,93.70
2018-06-27T03:30:07.066Z,93.60
2018-06-27T03:35:01.618Z,93.70
2018-06-27T03:39:56.132Z,93.50
2018-06-27T03:44:50.701Z,93.70
2018-06-27T03:54:39.588Z,93.80
2018-06-27T04:01:03.564Z,93.60
2018-06-27T04:05:58.117Z,92.30
2018-06-27T04:10:52.605Z,90.60
2018-06-27T04:15:47.191Z,90.30
2018-06-27T04:20:41.729Z,88.40
2018-06-27T04:25:36.403Z,86.10
2018-06-27T04:30:30.947Z,81.50
2018-06-27T04:40:19.720Z,71.60
2018-06-27T04:45:14.251Z,68.30
2018-06-27T04:50:08.829Z,66.30
2018-06-27T04:55:03.382Z,61.90
2018-06-27T05:04:52.221Z,58.00
2018-06-27T05:09:46.783Z,57.40
2018-06-27T05:14:41.344Z,59.20
2018-06-27T05:19:43.069Z,58.90
2018-06-27T05:24:37.701Z,58.60
2018-06-27T05:29:32.364Z,59.50
2018-06-27T05:34:26.863Z,60.10
2018-06-27T05:39:21.368Z,59.10
2018-06-27T05:44:15.942Z,59.40
2018-06-27T05:49:10.628Z,59.60
2018-06-27T05:54:05.318Z,63.10
2018-06-27T05:58:59.834Z,62.60
2018-06-27T06:03:54.360Z,62.70
2018-06-27T06:08:48.960Z,66.80
2018-06-27T06:18:40.112Z,66.70
2018-06-27T06:23:34.821Z,65.90
2018-06-27T06:28:30.573Z,65.60
2018-06-27T06:33:25.137Z,70.50
2018-06-27T06:38:19.642Z,72.20
2018-06-27T06:43:15.575Z,72.30
2018-06-27T06:48:25.381Z,72.30
2018-06-27T06:53:20.045Z,73.60
2018-06-27T06:58:14.649Z,73.40
2018-06-27T07:03:09.420Z,73.50
2018-06-27T07:08:11.584Z,76.30
2018-06-27T07:13:07.569Z,76.40
2018-06-27T07:18:06.783Z,76.60
2018-06-27T07:23:01.807Z,75.00
2018-06-27T07:27:56.550Z,75.10
2018-06-27T07:32:51.060Z,72.60
2018-06-27T07:37:45.630Z,73.80
2018-06-27T07:42:40.315Z,71.00
2018-06-27T07:47:35.429Z,71.30
2018-06-27T07:52:30.125Z,69.30
2018-06-27T07:57:25.034Z,68.60
2018-06-27T08:02:19.727Z,69.20
2018-06-27T08:07:14.421Z,68.70
2018-06-27T08:12:08.935Z,68.60
2018-06-27T08:17:03.979Z,68.00
2018-06-27T08:21:58.562Z,69.10
2018-06-27T08:26:53.225Z,68.20
2018-06-27T08:31:58.903Z,67.10
2018-06-27T08:37:03.049Z,66.30
2018-06-27T08:42:01.852Z,65.30
2018-06-27T08:46:56.674Z,64.80
2018-06-27T08:51:52.830Z,63.30
2018-06-27T08:56:47.450Z,64.80
2018-06-27T09:01:51.686Z,64.90
2018-06-27T09:06:46.877Z,66.00
2018-06-27T09:11:42.322Z,63.10
2018-06-27T09:16:37.269Z,62.60
2018-06-27T09:21:32.241Z,62.50
2018-06-27T09:26:26.882Z,62.10
2018-06-27T09:31:21.594Z,60.20
2018-06-27T09:36:16.157Z,58.50
2018-06-27T09:41:10.873Z,59.50
2018-06-27T09:46:06.139Z,56.20
2018-06-27T09:51:00.693Z,56.70
2018-06-27T09:55:55.261Z,56.90
2018-06-27T10:00:50.177Z,56.00
2018-06-27T10:10:39.238Z,55.80
2018-06-27T10:15:33.938Z,55.30
2018-06-27T10:25:22.853Z,54.10
2018-06-27T10:30:17.642Z,54.40
2018-06-27T10:35:12.609Z,53.30
2018-06-27T10:40:07.209Z,53.70
2018-06-27T10:45:01.927Z,53.10
2018-06-27T10:49:56.662Z,51.90
2018-06-27T10:54:52.143Z,52.30
2018-06-27T10:59:46.910Z,51.00
2018-06-27T11:04:41.997Z,51.90
2018-06-27T11:09:36.718Z,52.20
2018-06-27T11:14:41.427Z,52.80
2018-06-27T11:19:36.971Z,52.30
2018-06-27T11:24:31.716Z,51.90
2018-06-27T11:29:26.613Z,52.00
2018-06-27T11:34:21.728Z,51.50
2018-06-27T11:39:17.927Z,51.10
2018-06-27T11:44:12.930Z,49.10
2018-06-27T11:54:02.625Z,48.80
2018-06-27T11:58:57.333Z,49.40
2018-06-27T12:03:52.144Z,49.10
2018-06-27T12:08:46.963Z,48.70
2018-06-27T12:13:41.703Z,48.60
2018-06-27T12:18:36.313Z,49.60
2018-06-27T12:23:31.533Z,49.80
2018-06-27T12:28:26.108Z,49.70
2018-06-27T12:33:21.229Z,50.60
2018-06-27T12:38:15.866Z,50.00
2018-06-27T12:43:10.678Z,50.00
2018-06-27T12:48:05.618Z,50.00
2018-06-27T12:53:00.379Z,49.70
2018-06-27T12:57:55.151Z,49.50
2018-06-27T13:02:49.832Z,49.40
2018-06-27T13:07:44.452Z,48.20
2018-06-27T13:12:39.533Z,47.80
2018-06-27T13:17:34.153Z,48.10
2018-06-27T13:22:28.661Z,47.60
2018-06-27T13:27:23.117Z,48.70
2018-06-27T13:32:17.575Z,48.90
2018-06-27T13:37:13.007Z,49.20
2018-06-27T13:42:08.037Z,51.60
2018-06-27T13:47:02.567Z,53.10
2018-06-27T13:51:57.262Z,54.20
2018-06-27T13:56:51.881Z,54.40
2018-06-27T14:01:46.509Z,55.10
2018-06-27T14:06:41.126Z,55.70
2018-06-27T14:11:35.711Z,57.30
2018-06-27T14:16:30.351Z,58.50
2018-06-27T14:21:24.882Z,59.00
2018-06-27T14:26:19.523Z,58.70
2018-06-27T14:31:14.122Z,55.70
2018-06-27T14:36:08.721Z,55.70
2018-06-27T14:42:33.710Z,55.30
2018-06-27T14:47:28.330Z,55.50
2018-06-27T14:52:23.045Z,56.20
2018-06-27T14:57:18.001Z,56.80
2018-06-27T15:02:12.808Z,56.80
2018-06-27T15:07:07.376Z,57.40
2018-06-27T15:12:02.061Z,56.60
2018-06-27T15:16:56.685Z,57.40
2018-06-27T15:21:51.337Z,56.80
2018-06-27T15:26:46.020Z,56.50
2018-06-27T15:31:40.781Z,56.50
2018-06-27T15:36:35.297Z,57.10
2018-06-27T15:41:29.915Z,56.90
2018-06-27T15:46:24.638Z,56.10
2018-06-27T15:51:19.217Z,57.40
2018-06-27T15:56:13.784Z,55.60
2018-06-27T16:06:02.845Z,55.00
2018-06-27T16:10:57.652Z,55.30
2018-06-27T16:15:52.282Z,54.30
2018-06-27T16:20:46.885Z,52.00
2018-06-27T16:25:41.532Z,53.60
2018-06-27T16:30:36.118Z,51.70
2018-06-27T16:35:30.748Z,51.90
2018-06-27T16:40:25.255Z,51.80
2018-06-27T16:45:19.929Z,50.80
2018-06-27T16:50:14.538Z,49.40
2018-06-27T16:55:09.192Z,50.10
2018-06-27T17:00:05.164Z,49.50
2018-06-27T17:04:59.741Z,48.00
2018-06-27T17:09:54.285Z,48.20
2018-06-27T17:14:48.869Z,48.50
2018-06-27T17:19:43.330Z,48.90
2018-06-27T17:24:38.037Z,47.10
2018-06-27T17:29:32.592Z,45.00
2018-06-27T17:34:27.197Z,43.40
2018-06-27T17:49:10.853Z,45.50
2018-06-27T17:54:05.938Z,45.50
2018-06-27T18:03:54.832Z,45.20
2018-06-27T18:08:49.429Z,44.70
2018-06-27T18:13:44.030Z,44.30
2018-06-27T18:18:38.696Z,44.70
2018-06-27T18:23:33.317Z,45.40
2018-06-27T18:28:27.812Z,45.30
2018-06-27T18:33:22.433Z,49.70
2018-06-27T18:38:18.162Z,52.20
2018-06-27T18:43:12.680Z,53.40
2018-06-27T18:48:07.265Z,54.60
2018-06-27T18:53:02.036Z,55.40
2018-06-27T18:57:56.655Z,55.00
2018-06-27T19:02:51.201Z,54.70
2018-06-27T19:07:45.807Z,54.10
2018-06-27T19:12:40.518Z,54.70
2018-06-27T19:17:35.069Z,54.80
2018-06-27T19:22:29.645Z,55.90
2018-06-27T19:27:25.011Z,57.30
2018-06-27T19:32:19.618Z,58.70
2018-06-27T19:37:14.165Z,59.10
2018-06-27T19:42:08.775Z,58.90
2018-06-27T19:47:03.365Z,59.10
2018-06-27T19:51:57.852Z,59.30
2018-06-27T19:56:52.382Z,58.90
2018-06-27T20:01:46.901Z,58.60
2018-06-27T20:06:41.557Z,58.70
2018-06-27T20:16:30.529Z,59.20
2018-06-27T20:21:25.131Z,59.10
2018-06-27T20:26:19.722Z,59.60
2018-06-27T20:31:14.317Z,60.00
2018-06-27T20:36:08.842Z,60.20
2018-06-27T20:41:03.505Z,59.70
2018-06-27T20:45:58.125Z,60.50
2018-06-27T20:50:52.744Z,61.60
2018-06-27T21:00:41.598Z,62.00
2018-06-27T21:05:36.155Z,62.40
2018-06-27T21:10:30.658Z,62.60
2018-06-27T21:15:25.293Z,62.80
2018-06-27T21:20:19.894Z,63.10
2018-06-27T21:25:14.428Z,63.40
2018-06-27T21:30:09.714Z,64.00
2018-06-27T21:35:04.324Z,64.50
2018-06-27T21:39:59.558Z,64.50
2018-06-27T21:44:54.181Z,64.10
2018-06-27T21:49:48.756Z,64.40
2018-06-27T21:54:43.422Z,65.70
2018-06-27T21:59:37.953Z,66.80
2018-06-27T22:04:32.501Z,67.40
2018-06-27T22:09:27.094Z,67.80
2018-06-27T22:14:21.641Z,67.60
2018-06-27T22:19:16.128Z,68.40
2018-06-27T22:24:10.599Z,68.40
2018-06-27T22:29:05.109Z,69.20
2018-06-27T22:33:59.622Z,70.20
2018-06-27T22:38:54.145Z,71.20
2018-06-27T22:43:48.620Z,71.00
2018-06-27T22:48:43.156Z,71.40
2018-06-27T22:53:37.612Z,71.40
2018-06-27T22:58:32.135Z,71.20
2018-06-27T23:03:26.619Z,71.30
2018-06-27T23:08:21.073Z,71.30
2018-06-27T23:13:15.568Z,72.00
2018-06-27T23:18:10.171Z,72.70
2018-06-27T23:23:04.672Z,72.80
2018-06-27T23:27:59.107Z,72.90
2018-06-27T23:32:53.599Z,73.30
2018-06-27T23:37:48.074Z,73.30
2018-06-27T23:42:42.529Z,73.90
2018-06-27T23:47:36.977Z,74.10
2018-06-27T23:52:31.551Z,72.80
2018-06-27T23:57:26.090Z,72.80
